Beaumagic — PHKH — position and weather

sailwx.info

Track history (hours):
 
Tides and Currents Weather Stations Pressure Air Temp Water Temp Dewpoint Dewpoint Depression Visibility Wind Speed Wind Dir Waves Ship Positions

Beaumagic

Last reported at 2017-Oct-17 08:37 UTC. Time now 2017-Oct-17 12:55 UTC.
Position N 55°39' E 021°10'.

Length 88 m; draft 3.6 m.

Type: Cargo ship. MMSI: 244615000.

Date/timePositionNaut miles runAvg speedWind from/ knotsBaromVisibWave heightAir tempDewpointWater temp
2017-Oct-17 08:37N 55°39' E 021°10'61534.3
2017-Oct-16 14:41N 52°15' E 004°44'606200.6
2017-Oct-16 11:39N 55°43' E 020°52'210.7
2017-Oct-16 11:29N 55°43' E 020°49'510.4
2017-Oct-16 10:59N 55°43' E 020°40'510.4
2017-Oct-16 10:30N 55°42' E 020°31'510.4
2017-Oct-16 10:00N 55°42' E 020°22'510.5
2017-Oct-16 09:30N 55°41' E 020°13'510.5
2017-Oct-16 09:00N 55°41' E 020°03'510.4
2017-Oct-16 08:30N 55°40' E 019°54'610.4
2017-Oct-16 07:57N 55°40' E 019°44'510.4
2017-Oct-16 07:30N 55°39' E 019°36'510.0
2017-Oct-16 07:01N 55°39' E 019°27'510.0
2017-Oct-16 06:31N 55°38' E 019°18'510.1
2017-Oct-16 06:00N 55°38' E 019°09'510.2
2017-Oct-16 05:30N 55°37' E 019°00'510.2
2017-Oct-16 05:01N 55°37' E 018°51'5 9.9
2017-Oct-16 04:30N 55°36' E 018°43'510.1
2017-Oct-16 04:00N 55°36' E 018°34'510.3
2017-Oct-16 03:29N 55°35' E 018°24'510.4
2017-Oct-16 03:00N 55°35' E 018°15'910.4
2017-Oct-16 02:10N 55°34' E 018°00'310.3
2017-Oct-16 01:53N 55°34' E 017°55'410.3
2017-Oct-16 01:30N 55°33' E 017°48'510.2
2017-Oct-16 01:00N 55°33' E 017°39'610.3
2017-Oct-16 00:28N 55°32' E 017°29'510.3
2017-Oct-15 23:57N 55°32' E 017°20'910.2
2017-Oct-15 23:07N 55°31' E 017°05'710.0
2017-Oct-15 22:28N 55°30' E 016°54'710.1
2017-Oct-15 21:49N 55°30' E 016°42'310.2
2017-Oct-15 21:30N 55°30' E 016°37'610.2
2017-Oct-15 20:56N 55°29' E 016°26'510.1
2017-Oct-15 20:28N 55°28' E 016°18'510.4
2017-Oct-15 20:00N 55°28' E 016°10'510.3
2017-Oct-15 19:30N 55°27' E 016°01'510.3
2017-Oct-15 19:00N 55°27' E 015°52'510.2
2017-Oct-15 18:30N 55°26' E 015°43'510.3
2017-Oct-15 18:00N 55°26' E 015°34'610.8
2017-Oct-15 17:29N 55°25' E 015°24'510.6
2017-Oct-15 17:00N 55°25' E 015°15'510.6
2017-Oct-15 16:30N 55°24' E 015°05'510.7
2017-Oct-15 16:00N 55°24' E 014°56'510.8
2017-Oct-15 15:30N 55°23' E 014°47'510.1
2017-Oct-15 15:00N 55°22' E 014°38'1110.6
2017-Oct-15 14:00N 55°14' E 014°26'510.1
2017-Oct-15 13:30N 55°11' E 014°19'610.5
2017-Oct-15 12:54N 55°10' E 014°08'410.5
2017-Oct-15 12:30N 55°10' E 014°00'810.5
2017-Oct-15 11:47N 55°11' E 013°47'310.6
2017-Oct-15 11:30N 55°11' E 013°42'510.6
2017-Oct-15 11:00N 55°12' E 013°33'510.4
2017-Oct-15 10:30N 55°12' E 013°24'510.3
2017-Oct-15 09:59N 55°13' E 013°14'510.5
2017-Oct-15 09:30N 55°14' E 013°06'510.6
2017-Oct-15 09:00N 55°15' E 012°57'510.7
2017-Oct-15 08:30N 55°16' E 012°47'510.7
2017-Oct-15 08:00N 55°18' E 012°39'510.3
2017-Oct-15 07:30N 55°21' E 012°32'510.7
2017-Oct-15 07:00N 55°25' E 012°26'5 9.2
2017-Oct-15 06:30N 55°28' E 012°19'4 7.9
2017-Oct-15 05:59N 55°27' E 012°12'0 0.0
2017-Oct-15 05:28N 55°27' E 012°12'0 0.0
2017-Oct-15 04:58N 55°27' E 012°12'0 0.0
2017-Oct-15 04:28N 55°27' E 012°12'0 0.0
2017-Oct-15 03:52N 55°27' E 012°12'0 0.0
2017-Oct-15 03:25N 55°27' E 012°12'0 0.0
2017-Oct-15 02:55N 55°27' E 012°12'0 0.0
2017-Oct-15 02:25N 55°27' E 012°12'0 0.0
2017-Oct-15 01:58N 55°27' E 012°12'0 0.0
2017-Oct-15 01:28N 55°27' E 012°12'0 0.0
2017-Oct-15 00:58N 55°27' E 012°12'0 0.0
2017-Oct-15 00:28N 55°27' E 012°12'0 0.0
2017-Oct-14 23:55N 55°27' E 012°12'0 0.0
2017-Oct-14 23:28N 55°27' E 012°12'0 0.0
2017-Oct-14 22:58N 55°27' E 012°12'0 0.0
2017-Oct-14 22:25N 55°27' E 012°12'0 0.0
2017-Oct-14 21:55N 55°27' E 012°12'0 0.1
2017-Oct-14 21:30N 55°27' E 012°12'2 3.4
2017-Oct-14 21:01N 55°28' E 012°15'510.1
2017-Oct-14 20:31N 55°27' E 012°24'510.4
2017-Oct-14 20:01N 55°24' E 012°30'611.3
2017-Oct-14 19:30N 55°18' E 012°31'611.4
2017-Oct-14 19:00N 55°12' E 012°33'510.9
2017-Oct-14 18:30N 55°07' E 012°34'510.5
2017-Oct-14 18:00N 55°02' E 012°36'610.0
2017-Oct-14 17:26N 54°56' E 012°37'510.6
2017-Oct-14 16:56N 54°51' E 012°33'510.8
2017-Oct-14 16:31N 54°47' E 012°30'1011.1
2017-Oct-14 15:37N 54°39' E 012°21'111.3
2017-Oct-14 15:31N 54°37' E 012°21'611.4
2017-Oct-14 15:01N 54°32' E 012°18'611.6
2017-Oct-14 14:31N 54°27' E 012°13'510.8
2017-Oct-14 14:00N 54°25' E 012°05'811.3
2017-Oct-14 13:16N 54°24' E 011°50'310.9
2017-Oct-14 12:59N 54°25' E 011°45'611.8
2017-Oct-14 12:31N 54°27' E 011°36'612.3
2017-Oct-14 12:01N 54°30' E 011°27'611.7
2017-Oct-14 11:31N 54°32' E 011°18'611.8
2017-Oct-14 11:01N 54°35' E 011°08'612.0
2017-Oct-14 10:31N 54°34' E 010°58'612.1
2017-Oct-14 10:00N 54°34' E 010°48'611.7
2017-Oct-14 09:30N 54°33' E 010°38'611.4
2017-Oct-14 09:01N 54°31' E 010°28'23 6.4
2017-Oct-14 05:27N 54°21' E 009°53'4 8.2
2017-Oct-14 05:00N 54°22' E 009°47'4 8.3
2017-Oct-14 04:30N 54°18' E 009°43'4 7.7
2017-Oct-14 04:00N 54°16' E 009°38'4 7.8
2017-Oct-14 03:30N 54°13' E 009°34'4 8.5
2017-Oct-14 03:00N 54°11' E 009°28'4 8.4
2017-Oct-14 02:30N 54°09' E 009°21'4 8.1
2017-Oct-14 02:00N 54°05' E 009°19'3 5.6
2017-Oct-14 01:30N 54°02' E 009°18'0 0.0
2017-Oct-14 01:01N 54°02' E 009°18'0 0.1
2017-Oct-14 00:30N 54°02' E 009°18'3 5.9
2017-Oct-14 00:00N 53°59' E 009°17'4 8.6
2017-Oct-13 23:30N 53°56' E 009°13'2 4.3
2017-Oct-13 23:00N 53°54' E 009°10'1 2.3
2017-Oct-13 22:30N 53°54' E 009°09'1 2.0
2017-Oct-13 22:00N 53°53' E 009°07'4 7.4
2017-Oct-13 21:31N 53°52' E 009°02'5 9.6
2017-Oct-13 21:00N 53°50' E 008°54'5 9.7
2017-Oct-13 20:31N 53°51' E 008°46'510.1
2017-Oct-13 20:00N 53°55' E 008°40'5 9.6
2017-Oct-13 19:27N 53°58' E 008°33'11111.8
2017-Oct-13 10:02N 53°34' E 005°30'012.4
2017-Oct-13 10:00N 53°34' E 005°29'612.2
2017-Oct-13 09:30N 53°32' E 005°19'611.9
2017-Oct-13 09:00N 53°30' E 005°10'611.7
2017-Oct-13 08:30N 53°28' E 005°01'611.7
2017-Oct-13 08:00N 53°25' E 004°52'611.1
2017-Oct-13 07:30N 53°23' E 004°43'610.9
2017-Oct-13 06:59N 53°18' E 004°40'510.8
2017-Oct-13 06:29N 53°13' E 004°36'510.9
2017-Oct-13 06:00N 53°08' E 004°31'510.2
2017-Oct-13 05:30N 53°04' E 004°27'510.0
2017-Oct-13 05:00N 52°60' E 004°23'5 9.9
2017-Oct-13 04:30N 52°55' E 004°19'5 9.8
2017-Oct-13 04:00N 52°51' E 004°15'5 9.7
2017-Oct-13 03:30N 52°47' E 004°11'5 9.7
2017-Oct-13 03:00N 52°43' E 004°06'5 9.6
2017-Oct-13 02:30N 52°39' E 004°02'5 9.6
2017-Oct-13 02:00N 52°35' E 003°58'5 9.4
2017-Oct-13 01:30N 52°31' E 003°54'5 9.3
2017-Oct-13 01:00N 52°26' E 003°53'5 9.4
2017-Oct-13 00:30N 52°21' E 003°52'5 9.5
2017-Oct-13 00:00N 52°17' E 003°53'5 9.9
2017-Oct-12 23:30N 52°12' E 003°54'510.1
2017-Oct-12 23:00N 52°07' E 003°55'5 9.7
2017-Oct-12 22:30N 52°02' E 003°57'510.2
2017-Oct-12 22:00N 51°59' E 004°04'611.7
2017-Oct-12 21:30N 51°56' E 004°12'510.7
2017-Oct-12 21:00N 51°54' E 004°19'4 8.0
2017-Oct-12 20:30N 51°51' E 004°24'4 8.8
2017-Oct-12 20:00N 51°50' E 004°31'4 8.2
2017-Oct-12 19:31N 51°48' E 004°37'2 4.3
2017-Oct-12 19:01N 51°49' E 004°40'1 2.7
2017-Oct-12 18:31N 51°49' E 004°42'1 2.0
2017-Oct-12 17:59N 51°49' E 004°44'1 2.1
2017-Oct-12 17:26N 51°49' E 004°45'1 3.2
2017-Oct-12 17:00N 51°49' E 004°48'2 3.5
2017-Oct-12 16:30N 51°49' E 004°50'0 0.8
2017-Oct-12 16:00N 51°49' E 004°51'0 0.0
2017-Oct-12 15:27N 51°49' E 004°51'0 0.0
2017-Oct-12 14:48N 51°49' E 004°51'0 0.0
2017-Oct-12 14:30N 51°49' E 004°51'0 0.0
2017-Oct-12 14:00N 51°49' E 004°51'0 0.0
2017-Oct-12 13:27N 51°49' E 004°51'0 0.0
2017-Oct-12 13:00N 51°49' E 004°51'0 0.0
2017-Oct-12 12:24N 51°49' E 004°51'0 0.0
2017-Oct-12 11:45N 51°49' E 004°51'0 0.0
2017-Oct-12 11:27N 51°49' E 004°51'0 0.0
2017-Oct-12 10:57N 51°49' E 004°51'0 0.4
2017-Oct-12 10:30N 51°49' E 004°51'0 0.2
2017-Oct-12 10:00N 51°49' E 004°51'0 0.0
2017-Oct-12 09:30N 51°49' E 004°51'0 0.0
2017-Oct-12 09:00N 51°49' E 004°51'0 0.0
2017-Oct-12 08:30N 51°49' E 004°51'0 0.0
2017-Oct-12 08:00N 51°49' E 004°51'0 0.0
2017-Oct-12 07:30N 51°49' E 004°51'0 0.0
2017-Oct-12 07:00N 51°49' E 004°51'0 0.0
2017-Oct-12 06:30N 51°49' E 004°51'0 0.0
2017-Oct-12 06:00N 51°49' E 004°51'0 0.0
2017-Oct-12 05:30N 51°49' E 004°51'0 0.0
2017-Oct-12 05:00N 51°49' E 004°51'0 0.0
2017-Oct-12 04:30N 51°49' E 004°51'0 0.0
2017-Oct-12 04:00N 51°49' E 004°51'0 0.0
2017-Oct-12 03:30N 51°49' E 004°51'0 0.0
2017-Oct-12 03:00N 51°49' E 004°51'0 0.0
2017-Oct-12 02:30N 51°49' E 004°51'0 0.0
2017-Oct-12 02:00N 51°49' E 004°51'0 0.0
2017-Oct-12 01:30N 51°49' E 004°51'0 0.0
2017-Oct-12 01:00N 51°49' E 004°51'0 0.0
2017-Oct-12 00:30N 51°49' E 004°51'0 0.0
2017-Oct-12 00:00N 51°49' E 004°51'0 0.0
2017-Oct-11 23:30N 51°49' E 004°51'0 0.0
2017-Oct-11 23:00N 51°49' E 004°51'0 0.0
2017-Oct-11 22:30N 51°49' E 004°51'0 0.0
2017-Oct-11 22:00N 51°49' E 004°51'0 0.0
2017-Oct-11 21:30N 51°49' E 004°51'0 0.0
2017-Oct-11 21:00N 51°49' E 004°51'0 0.0
2017-Oct-11 20:27N 51°49' E 004°51'0 0.0
2017-Oct-11 20:00N 51°49' E 004°51'0 0.0
2017-Oct-11 19:30N 51°49' E 004°51'0 0.0
2017-Oct-11 19:00N 51°49' E 004°51'0 0.0
2017-Oct-11 18:30N 51°49' E 004°51'0 0.0
2017-Oct-11 18:00N 51°49' E 004°51'0 0.0
2017-Oct-11 17:30N 51°49' E 004°51'0 0.0
2017-Oct-11 17:00N 51°49' E 004°51'95 4.3
2017-Oct-10 19:12N 51°48' E 002°18'212.2
2017-Oct-10 18:59N 51°46' E 002°15'612.2
2017-Oct-10 18:30N 51°43' E 002°06'612.2
2017-Oct-10 18:00N 51°41' E 001°58'612.4
2017-Oct-10 17:30N 51°38' E 001°49'612.5
2017-Oct-10 17:00N 51°35' E 001°40'612.4
2017-Oct-10 16:30N 51°32' E 001°31'611.6
2017-Oct-10 16:01N 51°29' E 001°23'510.3
2017-Oct-10 15:31N 51°29' E 001°15'610.2
2017-Oct-10 14:56N 51°29' E 001°05'9 9.2
2017-Oct-10 13:55N 51°28' E 000°50'6 5.7
2017-Oct-10 12:52N 51°24' E 000°44'2 4.3
2017-Oct-10 12:26N 51°22' E 000°46'0 0.0
2017-Oct-10 11:20N 51°22' E 000°46'0 0.0
2017-Oct-10 10:50N 51°22' E 000°46'0 0.0
2017-Oct-10 10:23N 51°22' E 000°46'0 0.0
2017-Oct-10 09:50N 51°22' E 000°46'0 0.0
2017-Oct-10 09:17N 51°22' E 000°46'0 0.0
2017-Oct-10 07:53N 51°22' E 000°46'0 0.0
2017-Oct-10 06:53N 51°22' E 000°46'0 0.0
2017-Oct-10 06:26N 51°22' E 000°46'0 0.0
2017-Oct-10 02:26N 51°22' E 000°46'0 0.0
2017-Oct-10 01:38N 51°22' E 000°46'0 0.0
2017-Oct-10 01:14N 51°22' E 000°46'0 0.0
2017-Oct-10 00:17N 51°22' E 000°46'0 0.0
2017-Oct-09 23:44N 51°22' E 000°46'0 0.0
2017-Oct-09 23:20N 51°22' E 000°46'0 0.0
2017-Oct-09 22:56N 51°22' E 000°46'0 0.0
2017-Oct-09 21:56N 51°22' E 000°46'0 0.0
2017-Oct-09 21:29N 51°22' E 000°46'0 0.0
2017-Oct-09 19:14N 51°22' E 000°46'0 0.0
2017-Oct-09 18:53N 51°22' E 000°46'0 0.0
2017-Oct-09 09:50N 51°22' E 000°46'0 0.0
2017-Oct-09 08:44N 51°22' E 000°46'0 0.0
2017-Oct-09 08:20N 51°22' E 000°46'0 0.0
2017-Oct-09 07:53N 51°22' E 000°46'0 0.0
2017-Oct-09 07:17N 51°22' E 000°46'0 0.0
2017-Oct-09 06:59N 51°22' E 000°46'0 0.0
2017-Oct-09 02:59N 51°22' E 000°46'0 0.0
2017-Oct-08 20:08N 51°22' E 000°46'7 0.9
2017-Oct-08 11:50N 51°29' E 000°51'2 7.1
2017-Oct-08 11:30N 51°30' E 000°54'3 4.0
2017-Oct-08 10:46N 51°31' E 000°59'0 0.1
2017-Oct-08 10:28N 51°31' E 000°59'0 0.0
2017-Oct-08 09:25N 51°31' E 000°59'0 0.0
2017-Oct-08 08:55N 51°31' E 000°59'0 0.1
2017-Oct-08 07:52N 51°31' E 000°59'0 0.0
2017-Oct-08 07:16N 51°31' E 000°59'0 0.0
2017-Oct-08 05:55N 51°31' E 000°59'0 0.0
2017-Oct-08 03:34N 51°31' E 000°59'0 0.0
2017-Oct-08 03:13N 51°31' E 000°59'0 0.0
2017-Oct-08 02:52N 51°31' E 000°59'0 0.0
2017-Oct-08 02:28N 51°31' E 000°59'0 0.1
2017-Oct-08 01:52N 51°31' E 000°59'0 0.2
2017-Oct-08 01:22N 51°31' E 000°59'0 0.0
2017-Oct-08 00:37N 51°31' E 000°59'0 0.0
2017-Oct-08 00:19N 51°31' E 000°59'0 0.0
2017-Oct-07 22:19N 51°31' E 000°59'0 0.0
2017-Oct-07 21:04N 51°31' E 000°59'0 0.8
2017-Oct-07 20:58N 51°31' E 000°59'1 3.0
2017-Oct-07 20:30N 51°30' E 000°57'3 5.8
2017-Oct-07 20:00N 51°30' E 001°01'5 9.1
2017-Oct-07 19:30N 51°29' E 001°09'4 8.7
2017-Oct-07 19:00N 51°29' E 001°16'4 8.0
2017-Oct-07 18:30N 51°29' E 001°22'4 8.6
2017-Oct-07 18:00N 51°31' E 001°28'4 8.7
2017-Oct-07 17:30N 51°33' E 001°34'4 8.4
2017-Oct-07 17:00N 51°35' E 001°40'4 8.0
2017-Oct-07 16:30N 51°37' E 001°46'4 7.5
2017-Oct-07 16:00N 51°39' E 001°51'4 7.2
2017-Oct-07 15:30N 51°40' E 001°56'3 6.9
2017-Oct-07 15:00N 51°42' E 002°01'3 6.6
2017-Oct-07 14:30N 51°44' E 002°06'3 5.9
2017-Oct-07 13:59N 51°45' E 002°10'  
Track history (hours):
 
Tides and Currents Weather Stations Pressure Air Temp Water Temp Dewpoint Dewpoint Depression Visibility Wind Speed Wind Dir Waves Ship Positions

Beaumagic

Last reported at 2017-Oct-17 08:37 UTC. Time now 2017-Oct-17 12:55 UTC.
Position N 55°39' E 021°10'.

Length 88 m; draft 3.6 m.

Type: Cargo ship. MMSI: 244615000.

Date/timePositionNaut miles runAvg speedWind from/ knotsBaromVisibWave heightAir tempDewpointWater temp
2017-Oct-17 08:37N 55°39' E 021°10'61534.3
2017-Oct-16 14:41N 52°15' E 004°44'606200.6
2017-Oct-16 11:39N 55°43' E 020°52'210.7
2017-Oct-16 11:29N 55°43' E 020°49'510.4
2017-Oct-16 10:59N 55°43' E 020°40'510.4
2017-Oct-16 10:30N 55°42' E 020°31'510.4
2017-Oct-16 10:00N 55°42' E 020°22'510.5
2017-Oct-16 09:30N 55°41' E 020°13'510.5
2017-Oct-16 09:00N 55°41' E 020°03'510.4
2017-Oct-16 08:30N 55°40' E 019°54'610.4
2017-Oct-16 07:57N 55°40' E 019°44'510.4
2017-Oct-16 07:30N 55°39' E 019°36'510.0
2017-Oct-16 07:01N 55°39' E 019°27'510.0
2017-Oct-16 06:31N 55°38' E 019°18'510.1
2017-Oct-16 06:00N 55°38' E 019°09'510.2
2017-Oct-16 05:30N 55°37' E 019°00'510.2
2017-Oct-16 05:01N 55°37' E 018°51'5 9.9
2017-Oct-16 04:30N 55°36' E 018°43'510.1
2017-Oct-16 04:00N 55°36' E 018°34'510.3
2017-Oct-16 03:29N 55°35' E 018°24'510.4
2017-Oct-16 03:00N 55°35' E 018°15'910.4
2017-Oct-16 02:10N 55°34' E 018°00'310.3
2017-Oct-16 01:53N 55°34' E 017°55'410.3
2017-Oct-16 01:30N 55°33' E 017°48'510.2
2017-Oct-16 01:00N 55°33' E 017°39'610.3
2017-Oct-16 00:28N 55°32' E 017°29'510.3
2017-Oct-15 23:57N 55°32' E 017°20'910.2
2017-Oct-15 23:07N 55°31' E 017°05'710.0
2017-Oct-15 22:28N 55°30' E 016°54'710.1
2017-Oct-15 21:49N 55°30' E 016°42'310.2
2017-Oct-15 21:30N 55°30' E 016°37'610.2
2017-Oct-15 20:56N 55°29' E 016°26'510.1
2017-Oct-15 20:28N 55°28' E 016°18'510.4
2017-Oct-15 20:00N 55°28' E 016°10'510.3
2017-Oct-15 19:30N 55°27' E 016°01'510.3
2017-Oct-15 19:00N 55°27' E 015°52'510.2
2017-Oct-15 18:30N 55°26' E 015°43'510.3
2017-Oct-15 18:00N 55°26' E 015°34'610.8
2017-Oct-15 17:29N 55°25' E 015°24'510.6
2017-Oct-15 17:00N 55°25' E 015°15'510.6
2017-Oct-15 16:30N 55°24' E 015°05'510.7
2017-Oct-15 16:00N 55°24' E 014°56'510.8
2017-Oct-15 15:30N 55°23' E 014°47'510.1
2017-Oct-15 15:00N 55°22' E 014°38'1110.6
2017-Oct-15 14:00N 55°14' E 014°26'510.1
2017-Oct-15 13:30N 55°11' E 014°19'610.5
2017-Oct-15 12:54N 55°10' E 014°08'410.5
2017-Oct-15 12:30N 55°10' E 014°00'810.5
2017-Oct-15 11:47N 55°11' E 013°47'310.6
2017-Oct-15 11:30N 55°11' E 013°42'510.6
2017-Oct-15 11:00N 55°12' E 013°33'510.4
2017-Oct-15 10:30N 55°12' E 013°24'510.3
2017-Oct-15 09:59N 55°13' E 013°14'510.5
2017-Oct-15 09:30N 55°14' E 013°06'510.6
2017-Oct-15 09:00N 55°15' E 012°57'510.7
2017-Oct-15 08:30N 55°16' E 012°47'510.7
2017-Oct-15 08:00N 55°18' E 012°39'510.3
2017-Oct-15 07:30N 55°21' E 012°32'510.7
2017-Oct-15 07:00N 55°25' E 012°26'5 9.2
2017-Oct-15 06:30N 55°28' E 012°19'4 7.9
2017-Oct-15 05:59N 55°27' E 012°12'0 0.0
2017-Oct-15 05:28N 55°27' E 012°12'0 0.0
2017-Oct-15 04:58N 55°27' E 012°12'0 0.0
2017-Oct-15 04:28N 55°27' E 012°12'0 0.0
2017-Oct-15 03:52N 55°27' E 012°12'0 0.0
2017-Oct-15 03:25N 55°27' E 012°12'0 0.0
2017-Oct-15 02:55N 55°27' E 012°12'0 0.0
2017-Oct-15 02:25N 55°27' E 012°12'0 0.0
2017-Oct-15 01:58N 55°27' E 012°12'0 0.0
2017-Oct-15 01:28N 55°27' E 012°12'0 0.0
2017-Oct-15 00:58N 55°27' E 012°12'0 0.0
2017-Oct-15 00:28N 55°27' E 012°12'0 0.0
2017-Oct-14 23:55N 55°27' E 012°12'0 0.0
2017-Oct-14 23:28N 55°27' E 012°12'0 0.0
2017-Oct-14 22:58N 55°27' E 012°12'0 0.0
2017-Oct-14 22:25N 55°27' E 012°12'0 0.0
2017-Oct-14 21:55N 55°27' E 012°12'0 0.1
2017-Oct-14 21:30N 55°27' E 012°12'2 3.4
2017-Oct-14 21:01N 55°28' E 012°15'510.1
2017-Oct-14 20:31N 55°27' E 012°24'510.4
2017-Oct-14 20:01N 55°24' E 012°30'611.3
2017-Oct-14 19:30N 55°18' E 012°31'611.4
2017-Oct-14 19:00N 55°12' E 012°33'510.9
2017-Oct-14 18:30N 55°07' E 012°34'510.5
2017-Oct-14 18:00N 55°02' E 012°36'610.0
2017-Oct-14 17:26N 54°56' E 012°37'510.6
2017-Oct-14 16:56N 54°51' E 012°33'510.8
2017-Oct-14 16:31N 54°47' E 012°30'1011.1
2017-Oct-14 15:37N 54°39' E 012°21'111.3
2017-Oct-14 15:31N 54°37' E 012°21'611.4
2017-Oct-14 15:01N 54°32' E 012°18'611.6
2017-Oct-14 14:31N 54°27' E 012°13'510.8
2017-Oct-14 14:00N 54°25' E 012°05'811.3
2017-Oct-14 13:16N 54°24' E 011°50'310.9
2017-Oct-14 12:59N 54°25' E 011°45'611.8
2017-Oct-14 12:31N 54°27' E 011°36'612.3
2017-Oct-14 12:01N 54°30' E 011°27'611.7
2017-Oct-14 11:31N 54°32' E 011°18'611.8
2017-Oct-14 11:01N 54°35' E 011°08'612.0
2017-Oct-14 10:31N 54°34' E 010°58'612.1
2017-Oct-14 10:00N 54°34' E 010°48'611.7
2017-Oct-14 09:30N 54°33' E 010°38'611.4
2017-Oct-14 09:01N 54°31' E 010°28'23 6.4
2017-Oct-14 05:27N 54°21' E 009°53'4 8.2
2017-Oct-14 05:00N 54°22' E 009°47'4 8.3
2017-Oct-14 04:30N 54°18' E 009°43'4 7.7
2017-Oct-14 04:00N 54°16' E 009°38'4 7.8
2017-Oct-14 03:30N 54°13' E 009°34'4 8.5
2017-Oct-14 03:00N 54°11' E 009°28'4 8.4
2017-Oct-14 02:30N 54°09' E 009°21'4 8.1
2017-Oct-14 02:00N 54°05' E 009°19'3 5.6
2017-Oct-14 01:30N 54°02' E 009°18'0 0.0
2017-Oct-14 01:01N 54°02' E 009°18'0 0.1
2017-Oct-14 00:30N 54°02' E 009°18'3 5.9
2017-Oct-14 00:00N 53°59' E 009°17'4 8.6
2017-Oct-13 23:30N 53°56' E 009°13'2 4.3
2017-Oct-13 23:00N 53°54' E 009°10'1 2.3
2017-Oct-13 22:30N 53°54' E 009°09'1 2.0
2017-Oct-13 22:00N 53°53' E 009°07'4 7.4
2017-Oct-13 21:31N 53°52' E 009°02'5 9.6
2017-Oct-13 21:00N 53°50' E 008°54'5 9.7
2017-Oct-13 20:31N 53°51' E 008°46'510.1
2017-Oct-13 20:00N 53°55' E 008°40'5 9.6
2017-Oct-13 19:27N 53°58' E 008°33'11111.8
2017-Oct-13 10:02N 53°34' E 005°30'012.4
2017-Oct-13 10:00N 53°34' E 005°29'612.2
2017-Oct-13 09:30N 53°32' E 005°19'611.9
2017-Oct-13 09:00N 53°30' E 005°10'611.7
2017-Oct-13 08:30N 53°28' E 005°01'611.7
2017-Oct-13 08:00N 53°25' E 004°52'611.1
2017-Oct-13 07:30N 53°23' E 004°43'610.9
2017-Oct-13 06:59N 53°18' E 004°40'510.8
2017-Oct-13 06:29N 53°13' E 004°36'510.9
2017-Oct-13 06:00N 53°08' E 004°31'510.2
2017-Oct-13 05:30N 53°04' E 004°27'510.0
2017-Oct-13 05:00N 52°60' E 004°23'5 9.9
2017-Oct-13 04:30N 52°55' E 004°19'5 9.8
2017-Oct-13 04:00N 52°51' E 004°15'5 9.7
2017-Oct-13 03:30N 52°47' E 004°11'5 9.7
2017-Oct-13 03:00N 52°43' E 004°06'5 9.6
2017-Oct-13 02:30N 52°39' E 004°02'5 9.6
2017-Oct-13 02:00N 52°35' E 003°58'5 9.4
2017-Oct-13 01:30N 52°31' E 003°54'5 9.3
2017-Oct-13 01:00N 52°26' E 003°53'5 9.4
2017-Oct-13 00:30N 52°21' E 003°52'5 9.5
2017-Oct-13 00:00N 52°17' E 003°53'5 9.9
2017-Oct-12 23:30N 52°12' E 003°54'510.1
2017-Oct-12 23:00N 52°07' E 003°55'5 9.7
2017-Oct-12 22:30N 52°02' E 003°57'510.2
2017-Oct-12 22:00N 51°59' E 004°04'611.7
2017-Oct-12 21:30N 51°56' E 004°12'510.7
2017-Oct-12 21:00N 51°54' E 004°19'4 8.0
2017-Oct-12 20:30N 51°51' E 004°24'4 8.8
2017-Oct-12 20:00N 51°50' E 004°31'4 8.2
2017-Oct-12 19:31N 51°48' E 004°37'2 4.3
2017-Oct-12 19:01N 51°49' E 004°40'1 2.7
2017-Oct-12 18:31N 51°49' E 004°42'1 2.0
2017-Oct-12 17:59N 51°49' E 004°44'1 2.1
2017-Oct-12 17:26N 51°49' E 004°45'1 3.2
2017-Oct-12 17:00N 51°49' E 004°48'2 3.5
2017-Oct-12 16:30N 51°49' E 004°50'0 0.8
2017-Oct-12 16:00N 51°49' E 004°51'0 0.0
2017-Oct-12 15:27N 51°49' E 004°51'0 0.0
2017-Oct-12 14:48N 51°49' E 004°51'0 0.0
2017-Oct-12 14:30N 51°49' E 004°51'0 0.0
2017-Oct-12 14:00N 51°49' E 004°51'0 0.0
2017-Oct-12 13:27N 51°49' E 004°51'0 0.0
2017-Oct-12 13:00N 51°49' E 004°51'0 0.0
2017-Oct-12 12:24N 51°49' E 004°51'0 0.0
2017-Oct-12 11:45N 51°49' E 004°51'0 0.0
2017-Oct-12 11:27N 51°49' E 004°51'0 0.0
2017-Oct-12 10:57N 51°49' E 004°51'0 0.4
2017-Oct-12 10:30N 51°49' E 004°51'0 0.2
2017-Oct-12 10:00N 51°49' E 004°51'0 0.0
2017-Oct-12 09:30N 51°49' E 004°51'0 0.0
2017-Oct-12 09:00N 51°49' E 004°51'0 0.0
2017-Oct-12 08:30N 51°49' E 004°51'0 0.0
2017-Oct-12 08:00N 51°49' E 004°51'0 0.0
2017-Oct-12 07:30N 51°49' E 004°51'0 0.0
2017-Oct-12 07:00N 51°49' E 004°51'0 0.0
2017-Oct-12 06:30N 51°49' E 004°51'0 0.0
2017-Oct-12 06:00N 51°49' E 004°51'0 0.0
2017-Oct-12 05:30N 51°49' E 004°51'0 0.0
2017-Oct-12 05:00N 51°49' E 004°51'0 0.0
2017-Oct-12 04:30N 51°49' E 004°51'0 0.0
2017-Oct-12 04:00N 51°49' E 004°51'0 0.0
2017-Oct-12 03:30N 51°49' E 004°51'0 0.0
2017-Oct-12 03:00N 51°49' E 004°51'0 0.0
2017-Oct-12 02:30N 51°49' E 004°51'0 0.0
2017-Oct-12 02:00N 51°49' E 004°51'0 0.0
2017-Oct-12 01:30N 51°49' E 004°51'0 0.0
2017-Oct-12 01:00N 51°49' E 004°51'0 0.0
2017-Oct-12 00:30N 51°49' E 004°51'0 0.0
2017-Oct-12 00:00N 51°49' E 004°51'0 0.0
2017-Oct-11 23:30N 51°49' E 004°51'0 0.0
2017-Oct-11 23:00N 51°49' E 004°51'0 0.0
2017-Oct-11 22:30N 51°49' E 004°51'0 0.0
2017-Oct-11 22:00N 51°49' E 004°51'0 0.0
2017-Oct-11 21:30N 51°49' E 004°51'0 0.0
2017-Oct-11 21:00N 51°49' E 004°51'0 0.0
2017-Oct-11 20:27N 51°49' E 004°51'0 0.0
2017-Oct-11 20:00N 51°49' E 004°51'0 0.0
2017-Oct-11 19:30N 51°49' E 004°51'0 0.0
2017-Oct-11 19:00N 51°49' E 004°51'0 0.0
2017-Oct-11 18:30N 51°49' E 004°51'0 0.0
2017-Oct-11 18:00N 51°49' E 004°51'0 0.0
2017-Oct-11 17:30N 51°49' E 004°51'0 0.0
2017-Oct-11 17:00N 51°49' E 004°51'95 4.3
2017-Oct-10 19:12N 51°48' E 002°18'212.2
2017-Oct-10 18:59N 51°46' E 002°15'612.2
2017-Oct-10 18:30N 51°43' E 002°06'612.2
2017-Oct-10 18:00N 51°41' E 001°58'612.4
2017-Oct-10 17:30N 51°38' E 001°49'612.5
2017-Oct-10 17:00N 51°35' E 001°40'612.4
2017-Oct-10 16:30N 51°32' E 001°31'611.6
2017-Oct-10 16:01N 51°29' E 001°23'510.3
2017-Oct-10 15:31N 51°29' E 001°15'610.2
2017-Oct-10 14:56N 51°29' E 001°05'9 9.2
2017-Oct-10 13:55N 51°28' E 000°50'6 5.7
2017-Oct-10 12:52N 51°24' E 000°44'2 4.3
2017-Oct-10 12:26N 51°22' E 000°46'0 0.0
2017-Oct-10 11:20N 51°22' E 000°46'0 0.0
2017-Oct-10 10:50N 51°22' E 000°46'0 0.0
2017-Oct-10 10:23N 51°22' E 000°46'0 0.0
2017-Oct-10 09:50N 51°22' E 000°46'0 0.0
2017-Oct-10 09:17N 51°22' E 000°46'0 0.0
2017-Oct-10 07:53N 51°22' E 000°46'0 0.0
2017-Oct-10 06:53N 51°22' E 000°46'0 0.0
2017-Oct-10 06:26N 51°22' E 000°46'0 0.0
2017-Oct-10 02:26N 51°22' E 000°46'0 0.0
2017-Oct-10 01:38N 51°22' E 000°46'0 0.0
2017-Oct-10 01:14N 51°22' E 000°46'0 0.0
2017-Oct-10 00:17N 51°22' E 000°46'0 0.0
2017-Oct-09 23:44N 51°22' E 000°46'0 0.0
2017-Oct-09 23:20N 51°22' E 000°46'0 0.0
2017-Oct-09 22:56N 51°22' E 000°46'0 0.0
2017-Oct-09 21:56N 51°22' E 000°46'0 0.0
2017-Oct-09 21:29N 51°22' E 000°46'0 0.0
2017-Oct-09 19:14N 51°22' E 000°46'0 0.0
2017-Oct-09 18:53N 51°22' E 000°46'0 0.0
2017-Oct-09 09:50N 51°22' E 000°46'0 0.0
2017-Oct-09 08:44N 51°22' E 000°46'0 0.0
2017-Oct-09 08:20N 51°22' E 000°46'0 0.0
2017-Oct-09 07:53N 51°22' E 000°46'0 0.0
2017-Oct-09 07:17N 51°22' E 000°46'0 0.0
2017-Oct-09 06:59N 51°22' E 000°46'0 0.0
2017-Oct-09 02:59N 51°22' E 000°46'0 0.0
2017-Oct-08 20:08N 51°22' E 000°46'7 0.9
2017-Oct-08 11:50N 51°29' E 000°51'2 7.1
2017-Oct-08 11:30N 51°30' E 000°54'3 4.0
2017-Oct-08 10:46N 51°31' E 000°59'0 0.1
2017-Oct-08 10:28N 51°31' E 000°59'0 0.0
2017-Oct-08 09:25N 51°31' E 000°59'0 0.0
2017-Oct-08 08:55N 51°31' E 000°59'0 0.1
2017-Oct-08 07:52N 51°31' E 000°59'0 0.0
2017-Oct-08 07:16N 51°31' E 000°59'0 0.0
2017-Oct-08 05:55N 51°31' E 000°59'0 0.0
2017-Oct-08 03:34N 51°31' E 000°59'0 0.0
2017-Oct-08 03:13N 51°31' E 000°59'0 0.0
2017-Oct-08 02:52N 51°31' E 000°59'0 0.0
2017-Oct-08 02:28N 51°31' E 000°59'0 0.1
2017-Oct-08 01:52N 51°31' E 000°59'0 0.2
2017-Oct-08 01:22N 51°31' E 000°59'0 0.0
2017-Oct-08 00:37N 51°31' E 000°59'0 0.0
2017-Oct-08 00:19N 51°31' E 000°59'0 0.0
2017-Oct-07 22:19N 51°31' E 000°59'0 0.0
2017-Oct-07 21:04N 51°31' E 000°59'0 0.8
2017-Oct-07 20:58N 51°31' E 000°59'1 3.0
2017-Oct-07 20:30N 51°30' E 000°57'3 5.8
2017-Oct-07 20:00N 51°30' E 001°01'5 9.1
2017-Oct-07 19:30N 51°29' E 001°09'4 8.7
2017-Oct-07 19:00N 51°29' E 001°16'4 8.0
2017-Oct-07 18:30N 51°29' E 001°22'4 8.6
2017-Oct-07 18:00N 51°31' E 001°28'4 8.7
2017-Oct-07 17:30N 51°33' E 001°34'4 8.4
2017-Oct-07 17:00N 51°35' E 001°40'4 8.0
2017-Oct-07 16:30N 51°37' E 001°46'4 7.5
2017-Oct-07 16:00N 51°39' E 001°51'4 7.2
2017-Oct-07 15:30N 51°40' E 001°56'3 6.9
2017-Oct-07 15:00N 51°42' E 002°01'3 6.6
2017-Oct-07 14:30N 51°44' E 002°06'3 5.9
2017-Oct-07 13:59N 51°45' E 002°10'  

Dump ship's entire track history